sensor_id;sensor_type;location;lat;lon;timestamp;P1;durP1;ratioP1;P2;durP2;ratioP2
71769;SDS011;66386;52.122;5.420;2023-05-07T00:02:26;7.13;;;6.53;;
71769;SDS011;66386;52.122;5.420;2023-05-07T00:04:52;6.85;;;6.15;;
71769;SDS011;66386;52.122;5.420;2023-05-07T00:07:19;7.05;;;6.30;;
71769;SDS011;66386;52.122;5.420;2023-05-07T00:09:45;6.60;;;5.93;;
71769;SDS011;66386;52.122;5.420;2023-05-07T00:12:12;6.68;;;6.07;;
71769;SDS011;66386;52.122;5.420;2023-05-07T00:14:38;7.20;;;6.50;;
71769;SDS011;66386;52.122;5.420;2023-05-07T00:17:05;6.38;;;5.75;;
71769;SDS011;66386;52.122;5.420;2023-05-07T00:19:31;7.25;;;6.40;;
71769;SDS011;66386;52.122;5.420;2023-05-07T00:21:58;6.90;;;6.30;;
71769;SDS011;66386;52.122;5.420;2023-05-07T00:24:24;7.13;;;6.13;;
71769;SDS011;66386;52.122;5.420;2023-05-07T00:26:51;6.88;;;6.18;;
71769;SDS011;66386;52.122;5.420;2023-05-07T00:29:18;6.55;;;5.85;;
71769;SDS011;66386;52.122;5.420;2023-05-07T00:31:45;6.93;;;6.30;;
71769;SDS011;66386;52.122;5.420;2023-05-07T00:34:11;6.63;;;5.93;;
71769;SDS011;66386;52.122;5.420;2023-05-07T00:36:38;6.70;;;6.00;;
71769;SDS011;66386;52.122;5.420;2023-05-07T00:39:04;6.55;;;5.95;;
71769;SDS011;66386;52.122;5.420;2023-05-07T00:41:31;9.05;;;6.32;;
71769;SDS011;66386;52.122;5.420;2023-05-07T00:43:57;7.25;;;6.20;;
71769;SDS011;66386;52.122;5.420;2023-05-07T00:46:24;8.97;;;6.30;;
71769;SDS011;66386;52.122;5.420;2023-05-07T00:48:52;7.88;;;6.68;;
71769;SDS011;66386;52.122;5.420;2023-05-07T00:51:19;7.82;;;6.57;;
71769;SDS011;66386;52.122;5.420;2023-05-07T00:53:46;7.72;;;6.35;;
71769;SDS011;66386;52.122;5.420;2023-05-07T00:56:13;7.45;;;6.75;;
71769;SDS011;66386;52.122;5.420;2023-05-07T00:58:40;6.90;;;6.17;;
71769;SDS011;66386;52.122;5.420;2023-05-07T01:01:06;10.07;;;6.50;;
71769;SDS011;66386;52.122;5.420;2023-05-07T01:03:33;8.68;;;6.82;;
71769;SDS011;66386;52.122;5.420;2023-05-07T01:06:00;6.75;;;6.15;;
71769;SDS011;66386;52.122;5.420;2023-05-07T01:08:29;6.78;;;5.97;;
71769;SDS011;66386;52.122;5.420;2023-05-07T01:10:57;10.83;;;6.50;;
71769;SDS011;66386;52.122;5.420;2023-05-07T01:13:24;8.05;;;6.15;;
71769;SDS011;66386;52.122;5.420;2023-05-07T01:15:51;6.40;;;5.70;;
71769;SDS011;66386;52.122;5.420;2023-05-07T01:18:18;9.63;;;6.53;;
71769;SDS011;66386;52.122;5.420;2023-05-07T01:20:44;7.85;;;5.97;;
71769;SDS011;66386;52.122;5.420;2023-05-07T01:23:11;6.93;;;5.57;;
71769;SDS011;66386;52.122;5.420;2023-05-07T01:25:38;8.18;;;6.18;;
71769;SDS011;66386;52.122;5.420;2023-05-07T01:28:04;8.18;;;5.72;;
71769;SDS011;66386;52.122;5.420;2023-05-07T01:30:32;6.82;;;6.18;;
71769;SDS011;66386;52.122;5.420;2023-05-07T01:33:04;6.88;;;5.80;;
71769;SDS011;66386;52.122;5.420;2023-05-07T01:35:38;6.43;;;5.80;;
71769;SDS011;66386;52.122;5.420;2023-05-07T01:38:07;6.55;;;5.95;;
71769;SDS011;66386;52.122;5.420;2023-05-07T01:40:34;6.30;;;5.70;;
71769;SDS011;66386;52.122;5.420;2023-05-07T01:43:04;9.20;;;6.38;;
71769;SDS011;66386;52.122;5.420;2023-05-07T01:45:31;7.03;;;6.30;;
71769;SDS011;66386;52.122;5.420;2023-05-07T01:47:58;6.73;;;6.00;;
71769;SDS011;66386;52.122;5.420;2023-05-07T01:50:26;6.57;;;5.82;;
71769;SDS011;66386;52.122;5.420;2023-05-07T01:52:53;9.23;;;6.18;;
71769;SDS011;66386;52.122;5.420;2023-05-07T01:55:20;9.50;;;6.00;;
71769;SDS011;66386;52.122;5.420;2023-05-07T01:57:46;10.82;;;5.80;;
71769;SDS011;66386;52.122;5.420;2023-05-07T02:00:13;6.43;;;5.93;;
71769;SDS011;66386;52.122;5.420;2023-05-07T02:02:40;6.45;;;5.95;;
71769;SDS011;66386;52.122;5.420;2023-05-07T02:05:06;7.15;;;6.47;;
71769;SDS011;66386;52.122;5.420;2023-05-07T02:07:33;7.18;;;6.47;;
71769;SDS011;66386;52.122;5.420;2023-05-07T02:10:00;7.13;;;6.50;;
71769;SDS011;66386;52.122;5.420;2023-05-07T02:12:26;7.17;;;6.53;;
71769;SDS011;66386;52.122;5.420;2023-05-07T02:14:52;8.45;;;6.82;;
71769;SDS011;66386;52.122;5.420;2023-05-07T02:17:19;7.18;;;6.55;;
71769;SDS011;66386;52.122;5.420;2023-05-07T02:19:45;6.95;;;6.25;;
71769;SDS011;66386;52.122;5.420;2023-05-07T02:22:12;6.63;;;5.93;;
71769;SDS011;66386;52.122;5.420;2023-05-07T02:24:38;6.80;;;6.20;;
71769;SDS011;66386;52.122;5.420;2023-05-07T02:27:05;7.25;;;6.57;;
71769;SDS011;66386;52.122;5.420;2023-05-07T02:29:31;7.13;;;6.45;;
71769;SDS011;66386;52.122;5.420;2023-05-07T02:31:58;8.43;;;6.18;;
71769;SDS011;66386;52.122;5.420;2023-05-07T02:34:24;8.60;;;6.47;;
71769;SDS011;66386;52.122;5.420;2023-05-07T02:36:51;8.53;;;6.33;;
71769;SDS011;66386;52.122;5.420;2023-05-07T02:39:17;8.05;;;6.43;;
71769;SDS011;66386;52.122;5.420;2023-05-07T02:41:44;11.27;;;7.10;;
71769;SDS011;66386;52.122;5.420;2023-05-07T02:44:10;7.35;;;6.32;;
71769;SDS011;66386;52.122;5.420;2023-05-07T02:46:37;7.50;;;6.43;;
71769;SDS011;66386;52.122;5.420;2023-05-07T02:49:03;8.37;;;6.63;;
71769;SDS011;66386;52.122;5.420;2023-05-07T02:51:30;8.70;;;6.78;;
71769;SDS011;66386;52.122;5.420;2023-05-07T02:53:56;7.80;;;7.10;;
71769;SDS011;66386;52.122;5.420;2023-05-07T02:56:25;7.80;;;6.95;;
71769;SDS011;66386;52.122;5.420;2023-05-07T02:58:52;7.70;;;7.00;;
71769;SDS011;66386;52.122;5.420;2023-05-07T03:01:18;9.37;;;6.97;;
71769;SDS011;66386;52.122;5.420;2023-05-07T03:03:45;8.27;;;7.32;;
71769;SDS011;66386;52.122;5.420;2023-05-07T03:06:11;9.18;;;7.45;;
71769;SDS011;66386;52.122;5.420;2023-05-07T03:08:38;7.78;;;6.82;;
71769;SDS011;66386;52.122;5.420;2023-05-07T03:11:04;8.07;;;7.30;;
71769;SDS011;66386;52.122;5.420;2023-05-07T03:13:31;8.33;;;7.10;;
71769;SDS011;66386;52.122;5.420;2023-05-07T03:15:57;7.57;;;6.65;;
71769;SDS011;66386;52.122;5.420;2023-05-07T03:18:23;9.55;;;7.28;;
71769;SDS011;66386;52.122;5.420;2023-05-07T03:20:51;8.75;;;7.55;;
71769;SDS011;66386;52.122;5.420;2023-05-07T03:23:18;8.18;;;7.38;;
71769;SDS011;66386;52.122;5.420;2023-05-07T03:25:44;7.87;;;7.17;;
71769;SDS011;66386;52.122;5.420;2023-05-07T03:28:10;8.38;;;7.03;;
71769;SDS011;66386;52.122;5.420;2023-05-07T03:30:37;9.52;;;7.30;;
71769;SDS011;66386;52.122;5.420;2023-05-07T03:33:03;8.80;;;7.88;;
71769;SDS011;66386;52.122;5.420;2023-05-07T03:35:30;12.00;;;7.78;;
71769;SDS011;66386;52.122;5.420;2023-05-07T03:37:56;8.57;;;7.07;;
71769;SDS011;66386;52.122;5.420;2023-05-07T03:40:23;8.88;;;7.85;;
71769;SDS011;66386;52.122;5.420;2023-05-07T03:42:49;7.93;;;7.13;;
71769;SDS011;66386;52.122;5.420;2023-05-07T03:45:16;8.40;;;7.63;;
71769;SDS011;66386;52.122;5.420;2023-05-07T03:47:42;8.60;;;7.70;;
71769;SDS011;66386;52.122;5.420;2023-05-07T03:50:09;8.53;;;7.70;;
71769;SDS011;66386;52.122;5.420;2023-05-07T03:52:37;9.93;;;8.20;;
71769;SDS011;66386;52.122;5.420;2023-05-07T03:55:03;11.32;;;7.65;;
71769;SDS011;66386;52.122;5.420;2023-05-07T03:57:30;9.23;;;7.18;;
71769;SDS011;66386;52.122;5.420;2023-05-07T03:59:56;8.80;;;7.72;;
71769;SDS011;66386;52.122;5.420;2023-05-07T04:02:23;10.97;;;8.27;;
71769;SDS011;66386;52.122;5.420;2023-05-07T04:04:50;11.10;;;7.70;;
71769;SDS011;66386;52.122;5.420;2023-05-07T04:07:16;12.10;;;7.80;;
71769;SDS011;66386;52.122;5.420;2023-05-07T04:09:43;8.70;;;7.57;;
71769;SDS011;66386;52.122;5.420;2023-05-07T04:12:09;9.68;;;8.00;;
71769;SDS011;66386;52.122;5.420;2023-05-07T04:14:36;10.77;;;8.00;;
71769;SDS011;66386;52.122;5.420;2023-05-07T04:17:02;9.30;;;7.55;;
71769;SDS011;66386;52.122;5.420;2023-05-07T04:19:29;9.15;;;8.25;;
71769;SDS011;66386;52.122;5.420;2023-05-07T04:21:55;9.05;;;7.97;;
71769;SDS011;66386;52.122;5.420;2023-05-07T04:24:22;8.60;;;7.82;;
71769;SDS011;66386;52.122;5.420;2023-05-07T04:26:49;11.13;;;7.47;;
71769;SDS011;66386;52.122;5.420;2023-05-07T04:29:17;10.38;;;9.27;;
71769;SDS011;66386;52.122;5.420;2023-05-07T04:31:43;10.13;;;8.15;;
71769;SDS011;66386;52.122;5.420;2023-05-07T04:34:10;10.38;;;8.98;;
71769;SDS011;66386;52.122;5.420;2023-05-07T04:36:38;9.23;;;8.35;;
71769;SDS011;66386;52.122;5.420;2023-05-07T04:39:04;10.97;;;8.67;;
71769;SDS011;66386;52.122;5.420;2023-05-07T04:41:31;11.65;;;8.63;;
71769;SDS011;66386;52.122;5.420;2023-05-07T04:43:58;9.32;;;8.43;;
71769;SDS011;66386;52.122;5.420;2023-05-07T04:46:25;10.07;;;8.23;;
71769;SDS011;66386;52.122;5.420;2023-05-07T04:48:51;11.93;;;9.27;;
71769;SDS011;66386;52.122;5.420;2023-05-07T04:51:18;10.07;;;8.87;;
71769;SDS011;66386;52.122;5.420;2023-05-07T04:53:44;10.38;;;8.73;;
71769;SDS011;66386;52.122;5.420;2023-05-07T04:56:11;10.05;;;8.50;;
71769;SDS011;66386;52.122;5.420;2023-05-07T04:58:37;10.55;;;9.35;;
71769;SDS011;66386;52.122;5.420;2023-05-07T05:01:04;12.30;;;9.30;;
71769;SDS011;66386;52.122;5.420;2023-05-07T05:03:31;9.63;;;8.43;;
71769;SDS011;66386;52.122;5.420;2023-05-07T05:05:58;9.95;;;8.13;;
71769;SDS011;66386;52.122;5.420;2023-05-07T05:08:25;10.32;;;8.25;;
71769;SDS011;66386;52.122;5.420;2023-05-07T05:10:52;9.30;;;8.38;;
71769;SDS011;66386;52.122;5.420;2023-05-07T05:13:19;13.98;;;8.82;;
71769;SDS011;66386;52.122;5.420;2023-05-07T05:15:45;12.23;;;8.90;;
71769;SDS011;66386;52.122;5.420;2023-05-07T05:18:12;11.65;;;8.65;;
71769;SDS011;66386;52.122;5.420;2023-05-07T05:20:38;11.73;;;9.13;;
71769;SDS011;66386;52.122;5.420;2023-05-07T05:23:05;10.23;;;8.88;;
71769;SDS011;66386;52.122;5.420;2023-05-07T05:25:32;11.52;;;9.38;;
71769;SDS011;66386;52.122;5.420;2023-05-07T05:27:58;10.40;;;9.00;;
71769;SDS011;66386;52.122;5.420;2023-05-07T05:30:25;12.15;;;8.98;;
71769;SDS011;66386;52.122;5.420;2023-05-07T05:32:51;11.52;;;8.48;;
71769;SDS011;66386;52.122;5.420;2023-05-07T05:35:18;10.27;;;8.80;;
71769;SDS011;66386;52.122;5.420;2023-05-07T05:37:44;11.00;;;8.98;;
71769;SDS011;66386;52.122;5.420;2023-05-07T05:40:10;10.63;;;8.97;;
71769;SDS011;66386;52.122;5.420;2023-05-07T05:42:38;14.50;;;9.65;;
71769;SDS011;66386;52.122;5.420;2023-05-07T05:45:04;15.38;;;9.77;;
71769;SDS011;66386;52.122;5.420;2023-05-07T05:47:31;13.65;;;9.68;;
71769;SDS011;66386;52.122;5.420;2023-05-07T05:49:58;13.18;;;9.65;;
71769;SDS011;66386;52.122;5.420;2023-05-07T05:52:24;11.23;;;8.73;;
71769;SDS011;66386;52.122;5.420;2023-05-07T05:54:51;11.73;;;9.15;;
71769;SDS011;66386;52.122;5.420;2023-05-07T05:57:17;13.25;;;9.80;;
71769;SDS011;66386;52.122;5.420;2023-05-07T05:59:44;10.77;;;9.15;;
71769;SDS011;66386;52.122;5.420;2023-05-07T06:02:11;11.68;;;9.60;;
71769;SDS011;66386;52.122;5.420;2023-05-07T06:04:37;11.27;;;9.27;;
71769;SDS011;66386;52.122;5.420;2023-05-07T06:07:03;12.00;;;9.25;;
71769;SDS011;66386;52.122;5.420;2023-05-07T06:09:30;11.82;;;10.38;;
71769;SDS011;66386;52.122;5.420;2023-05-07T06:11:56;11.40;;;8.57;;
71769;SDS011;66386;52.122;5.420;2023-05-07T06:14:26;12.27;;;9.82;;
71769;SDS011;66386;52.122;5.420;2023-05-07T06:16:52;10.43;;;9.33;;
71769;SDS011;66386;52.122;5.420;2023-05-07T06:19:18;16.15;;;9.88;;
71769;SDS011;66386;52.122;5.420;2023-05-07T06:21:49;11.80;;;9.77;;
71769;SDS011;66386;52.122;5.420;2023-05-07T06:24:16;12.80;;;9.88;;
71769;SDS011;66386;52.122;5.420;2023-05-07T06:26:42;11.18;;;9.52;;
71769;SDS011;66386;52.122;5.420;2023-05-07T06:29:09;10.83;;;9.73;;
71769;SDS011;66386;52.122;5.420;2023-05-07T06:31:35;10.93;;;9.82;;
71769;SDS011;66386;52.122;5.420;2023-05-07T06:34:02;11.30;;;10.10;;
71769;SDS011;66386;52.122;5.420;2023-05-07T06:36:28;15.68;;;10.70;;
71769;SDS011;66386;52.122;5.420;2023-05-07T06:38:55;13.23;;;9.45;;
71769;SDS011;66386;52.122;5.420;2023-05-07T06:41:22;12.33;;;10.63;;
71769;SDS011;66386;52.122;5.420;2023-05-07T06:43:48;13.70;;;9.75;;
71769;SDS011;66386;52.122;5.420;2023-05-07T06:46:15;12.35;;;10.02;;
71769;SDS011;66386;52.122;5.420;2023-05-07T06:48:42;12.25;;;10.93;;
71769;SDS011;66386;52.122;5.420;2023-05-07T06:51:08;14.93;;;10.75;;
71769;SDS011;66386;52.122;5.420;2023-05-07T06:53:35;13.10;;;10.83;;
71769;SDS011;66386;52.122;5.420;2023-05-07T06:56:01;14.25;;;10.88;;
71769;SDS011;66386;52.122;5.420;2023-05-07T06:58:28;12.75;;;10.93;;
71769;SDS011;66386;52.122;5.420;2023-05-07T07:00:55;13.43;;;10.90;;
71769;SDS011;66386;52.122;5.420;2023-05-07T07:03:22;13.30;;;10.77;;
71769;SDS011;66386;52.122;5.420;2023-05-07T07:05:52;11.83;;;9.90;;
71769;SDS011;66386;52.122;5.420;2023-05-07T07:08:19;14.98;;;11.05;;
71769;SDS011;66386;52.122;5.420;2023-05-07T07:10:47;13.93;;;10.60;;
71769;SDS011;66386;52.122;5.420;2023-05-07T07:13:14;17.13;;;11.50;;
71769;SDS011;66386;52.122;5.420;2023-05-07T07:15:41;11.70;;;10.10;;
71769;SDS011;66386;52.122;5.420;2023-05-07T07:18:07;12.90;;;10.30;;
71769;SDS011;66386;52.122;5.420;2023-05-07T07:20:34;12.13;;;10.40;;
71769;SDS011;66386;52.122;5.420;2023-05-07T07:23:00;13.50;;;11.20;;
71769;SDS011;66386;52.122;5.420;2023-05-07T07:25:27;13.00;;;9.98;;
71769;SDS011;66386;52.122;5.420;2023-05-07T07:27:54;11.55;;;10.27;;
71769;SDS011;66386;52.122;5.420;2023-05-07T07:30:20;11.73;;;10.53;;
71769;SDS011;66386;52.122;5.420;2023-05-07T07:32:47;12.93;;;10.80;;
71769;SDS011;66386;52.122;5.420;2023-05-07T07:35:14;11.23;;;10.13;;
71769;SDS011;66386;52.122;5.420;2023-05-07T07:37:40;11.60;;;10.40;;
71769;SDS011;66386;52.122;5.420;2023-05-07T07:40:07;10.73;;;9.57;;
71769;SDS011;66386;52.122;5.420;2023-05-07T07:42:34;13.87;;;11.07;;
71769;SDS011;66386;52.122;5.420;2023-05-07T07:45:00;12.18;;;10.52;;
71769;SDS011;66386;52.122;5.420;2023-05-07T07:47:27;11.00;;;9.90;;
71769;SDS011;66386;52.122;5.420;2023-05-07T07:49:53;12.32;;;11.10;;
71769;SDS011;66386;52.122;5.420;2023-05-07T07:52:20;13.45;;;11.10;;
71769;SDS011;66386;52.122;5.420;2023-05-07T07:54:46;12.67;;;11.37;;
71769;SDS011;66386;52.122;5.420;2023-05-07T07:57:13;12.43;;;10.60;;
71769;SDS011;66386;52.122;5.420;2023-05-07T07:59:39;10.77;;;9.63;;
71769;SDS011;66386;52.122;5.420;2023-05-07T08:02:06;11.13;;;10.07;;
71769;SDS011;66386;52.122;5.420;2023-05-07T08:04:32;12.23;;;10.55;;
71769;SDS011;66386;52.122;5.420;2023-05-07T08:06:59;11.57;;;10.37;;
71769;SDS011;66386;52.122;5.420;2023-05-07T08:09:26;11.95;;;10.65;;
71769;SDS011;66386;52.122;5.420;2023-05-07T08:11:52;11.52;;;9.55;;
71769;SDS011;66386;52.122;5.420;2023-05-07T08:14:19;11.80;;;10.68;;
71769;SDS011;66386;52.122;5.420;2023-05-07T08:16:45;12.02;;;10.75;;
71769;SDS011;66386;52.122;5.420;2023-05-07T08:19:12;11.70;;;10.07;;
71769;SDS011;66386;52.122;5.420;2023-05-07T08:21:39;12.40;;;10.77;;
71769;SDS011;66386;52.122;5.420;2023-05-07T08:24:06;12.70;;;10.32;;
71769;SDS011;66386;52.122;5.420;2023-05-07T08:26:32;13.43;;;11.02;;
71769;SDS011;66386;52.122;5.420;2023-05-07T08:28:59;13.60;;;12.20;;
71769;SDS011;66386;52.122;5.420;2023-05-07T08:31:26;12.93;;;11.37;;
71769;SDS011;66386;52.122;5.420;2023-05-07T08:33:52;13.63;;;11.82;;
71769;SDS011;66386;52.122;5.420;2023-05-07T08:36:18;12.82;;;11.52;;
71769;SDS011;66386;52.122;5.420;2023-05-07T08:38:45;13.15;;;11.55;;
71769;SDS011;66386;52.122;5.420;2023-05-07T08:41:12;13.23;;;11.68;;
71769;SDS011;66386;52.122;5.420;2023-05-07T08:43:38;12.80;;;11.53;;
71769;SDS011;66386;52.122;5.420;2023-05-07T08:46:08;14.35;;;11.73;;
71769;SDS011;66386;52.122;5.420;2023-05-07T08:48:37;13.43;;;12.02;;
71769;SDS011;66386;52.122;5.420;2023-05-07T08:51:04;14.18;;;12.75;;
71769;SDS011;66386;52.122;5.420;2023-05-07T08:53:31;14.43;;;11.85;;
71769;SDS011;66386;52.122;5.420;2023-05-07T08:55:57;16.53;;;12.07;;
71769;SDS011;66386;52.122;5.420;2023-05-07T08:58:25;13.13;;;11.73;;
71769;SDS011;66386;52.122;5.420;2023-05-07T09:00:51;14.18;;;11.70;;
71769;SDS011;66386;52.122;5.420;2023-05-07T09:03:20;14.10;;;12.23;;
71769;SDS011;66386;52.122;5.420;2023-05-07T09:05:46;14.80;;;12.55;;
71769;SDS011;66386;52.122;5.420;2023-05-07T09:08:14;15.10;;;12.20;;
71769;SDS011;66386;52.122;5.420;2023-05-07T09:10:42;16.45;;;12.20;;
71769;SDS011;66386;52.122;5.420;2023-05-07T09:13:08;13.98;;;11.63;;
71769;SDS011;66386;52.122;5.420;2023-05-07T09:15:36;14.93;;;12.57;;
71769;SDS011;66386;52.122;5.420;2023-05-07T09:18:03;12.95;;;11.10;;
71769;SDS011;66386;52.122;5.420;2023-05-07T09:20:30;14.83;;;11.10;;
71769;SDS011;66386;52.122;5.420;2023-05-07T09:22:57;13.80;;;11.65;;
71769;SDS011;66386;52.122;5.420;2023-05-07T09:25:30;13.95;;;11.93;;
71769;SDS011;66386;52.122;5.420;2023-05-07T09:27:58;13.73;;;12.23;;
71769;SDS011;66386;52.122;5.420;2023-05-07T09:30:29;15.25;;;12.68;;
71769;SDS011;66386;52.122;5.420;2023-05-07T09:33:00;12.63;;;11.20;;
71769;SDS011;66386;52.122;5.420;2023-05-07T09:35:29;12.63;;;11.18;;
71769;SDS011;66386;52.122;5.420;2023-05-07T09:37:57;15.35;;;11.73;;
71769;SDS011;66386;52.122;5.420;2023-05-07T09:40:28;15.90;;;11.77;;
71769;SDS011;66386;52.122;5.420;2023-05-07T09:42:55;12.95;;;10.63;;
71769;SDS011;66386;52.122;5.420;2023-05-07T09:45:26;12.87;;;11.53;;
71769;SDS011;66386;52.122;5.420;2023-05-07T09:47:57;14.05;;;11.27;;
71769;SDS011;66386;52.122;5.420;2023-05-07T09:50:26;13.35;;;11.32;;
71769;SDS011;66386;52.122;5.420;2023-05-07T09:52:55;14.43;;;11.60;;
71769;SDS011;66386;52.122;5.420;2023-05-07T09:55:22;13.63;;;12.10;;
71769;SDS011;66386;52.122;5.420;2023-05-07T09:57:50;13.23;;;11.40;;
71769;SDS011;66386;52.122;5.420;2023-05-07T10:00:18;13.88;;;12.00;;
71769;SDS011;66386;52.122;5.420;2023-05-07T10:02:50;15.15;;;12.35;;
71769;SDS011;66386;52.122;5.420;2023-05-07T10:05:19;13.27;;;11.65;;
71769;SDS011;66386;52.122;5.420;2023-05-07T10:07:48;13.52;;;12.13;;
71769;SDS011;66386;52.122;5.420;2023-05-07T10:10:15;14.43;;;12.13;;
71769;SDS011;66386;52.122;5.420;2023-05-07T10:12:43;14.38;;;12.82;;
71769;SDS011;66386;52.122;5.420;2023-05-07T10:15:11;13.25;;;11.85;;
71769;SDS011;66386;52.122;5.420;2023-05-07T10:17:39;13.25;;;11.90;;
71769;SDS011;66386;52.122;5.420;2023-05-07T10:20:07;13.18;;;11.88;;
71769;SDS011;66386;52.122;5.420;2023-05-07T10:22:38;14.37;;;12.00;;
71769;SDS011;66386;52.122;5.420;2023-05-07T10:25:12;13.13;;;11.00;;
71769;SDS011;66386;52.122;5.420;2023-05-07T10:27:41;12.82;;;11.50;;
71769;SDS011;66386;52.122;5.420;2023-05-07T10:33:04;15.48;;;11.85;;
71769;SDS011;66386;52.122;5.420;2023-05-07T10:35:38;13.57;;;12.17;;
71769;SDS011;66386;52.122;5.420;2023-05-07T10:38:08;13.98;;;12.00;;
71769;SDS011;66386;52.122;5.420;2023-05-07T10:40:35;14.98;;;11.32;;
71769;SDS011;66386;52.122;5.420;2023-05-07T10:43:03;13.43;;;11.75;;
71769;SDS011;66386;52.122;5.420;2023-05-07T10:45:36;12.90;;;11.60;;
71769;SDS011;66386;52.122;5.420;2023-05-07T10:48:13;12.90;;;10.90;;
71769;SDS011;66386;52.122;5.420;2023-05-07T10:50:43;12.73;;;10.52;;
71769;SDS011;66386;52.122;5.420;2023-05-07T10:55:48;13.65;;;11.32;;
71769;SDS011;66386;52.122;5.420;2023-05-07T10:58:24;12.88;;;10.85;;
71769;SDS011;66386;52.122;5.420;2023-05-07T11:00:59;12.40;;;11.10;;
71769;SDS011;66386;52.122;5.420;2023-05-07T11:03:27;12.50;;;11.20;;
71769;SDS011;66386;52.122;5.420;2023-05-07T11:06:13;12.73;;;11.38;;
71769;SDS011;66386;52.122;5.420;2023-05-07T11:17:09;14.10;;;11.05;;
71769;SDS011;66386;52.122;5.420;2023-05-07T11:19:49;13.00;;;11.57;;
71769;SDS011;66386;52.122;5.420;2023-05-07T11:22:39;12.55;;;11.38;;
71769;SDS011;66386;52.122;5.420;2023-05-07T11:25:08;13.68;;;11.65;;
71769;SDS011;66386;52.122;5.420;2023-05-07T11:27:35;13.67;;;11.97;;
71769;SDS011;66386;52.122;5.420;2023-05-07T11:30:02;15.02;;;12.00;;
71769;SDS011;66386;52.122;5.420;2023-05-07T11:32:29;13.05;;;11.73;;
71769;SDS011;66386;52.122;5.420;2023-05-07T11:34:57;14.52;;;11.90;;
71769;SDS011;66386;52.122;5.420;2023-05-07T11:37:25;13.45;;;12.05;;
71769;SDS011;66386;52.122;5.420;2023-05-07T11:40:04;16.03;;;12.63;;
71769;SDS011;66386;52.122;5.420;2023-05-07T11:42:37;14.07;;;12.45;;
71769;SDS011;66386;52.122;5.420;2023-05-07T11:45:05;13.57;;;12.15;;
71769;SDS011;66386;52.122;5.420;2023-05-07T11:47:33;13.23;;;11.88;;
71769;SDS011;66386;52.122;5.420;2023-05-07T11:50:04;14.13;;;12.05;;
71769;SDS011;66386;52.122;5.420;2023-05-07T11:52:32;12.57;;;11.30;;
71769;SDS011;66386;52.122;5.420;2023-05-07T11:54:59;13.27;;;11.90;;
71769;SDS011;66386;52.122;5.420;2023-05-07T11:57:26;14.00;;;12.23;;
71769;SDS011;66386;52.122;5.420;2023-05-07T11:59:56;13.73;;;12.43;;
71769;SDS011;66386;52.122;5.420;2023-05-07T12:02:24;14.65;;;12.35;;
71769;SDS011;66386;52.122;5.420;2023-05-07T12:04:52;16.13;;;12.63;;
71769;SDS011;66386;52.122;5.420;2023-05-07T12:07:19;14.32;;;12.93;;
71769;SDS011;66386;52.122;5.420;2023-05-07T12:09:46;14.15;;;12.43;;
71769;SDS011;66386;52.122;5.420;2023-05-07T12:12:13;15.18;;;13.35;;
71769;SDS011;66386;52.122;5.420;2023-05-07T12:14:42;13.98;;;12.30;;
71769;SDS011;66386;52.122;5.420;2023-05-07T12:17:10;15.83;;;12.87;;
71769;SDS011;66386;52.122;5.420;2023-05-07T12:19:39;13.55;;;12.13;;
71769;SDS011;66386;52.122;5.420;2023-05-07T12:22:09;14.23;;;12.73;;
71769;SDS011;66386;52.122;5.420;2023-05-07T12:24:43;15.45;;;13.75;;
71769;SDS011;66386;52.122;5.420;2023-05-07T12:27:10;13.57;;;12.18;;
71769;SDS011;66386;52.122;5.420;2023-05-07T12:29:36;15.50;;;12.70;;
71769;SDS011;66386;52.122;5.420;2023-05-07T12:32:06;13.35;;;12.07;;
71769;SDS011;66386;52.122;5.420;2023-05-07T12:34:33;13.73;;;12.43;;
71769;SDS011;66386;52.122;5.420;2023-05-07T12:37:01;14.50;;;12.23;;
71769;SDS011;66386;52.122;5.420;2023-05-07T12:39:30;13.85;;;12.45;;
71769;SDS011;66386;52.122;5.420;2023-05-07T12:41:58;12.23;;;11.03;;
71769;SDS011;66386;52.122;5.420;2023-05-07T12:44:29;12.07;;;10.80;;
71769;SDS011;66386;52.122;5.420;2023-05-07T12:47:02;10.98;;;9.88;;
71769;SDS011;66386;52.122;5.420;2023-05-07T12:49:29;11.65;;;10.55;;
71769;SDS011;66386;52.122;5.420;2023-05-07T12:51:55;11.70;;;10.05;;
71769;SDS011;66386;52.122;5.420;2023-05-07T12:54:29;12.07;;;9.30;;
71769;SDS011;66386;52.122;5.420;2023-05-07T12:57:06;11.55;;;9.05;;
71769;SDS011;66386;52.122;5.420;2023-05-07T12:59:36;8.73;;;7.07;;
71769;SDS011;66386;52.122;5.420;2023-05-07T13:02:03;8.70;;;7.25;;
71769;SDS011;66386;52.122;5.420;2023-05-07T13:04:31;9.10;;;6.93;;
71769;SDS011;66386;52.122;5.420;2023-05-07T13:06:58;7.33;;;6.60;;
71769;SDS011;66386;52.122;5.420;2023-05-07T13:09:25;9.18;;;8.27;;
71769;SDS011;66386;52.122;5.420;2023-05-07T13:11:52;10.80;;;9.23;;
71769;SDS011;66386;52.122;5.420;2023-05-07T13:14:18;10.98;;;9.82;;
71769;SDS011;66386;52.122;5.420;2023-05-07T13:16:47;10.38;;;9.32;;
71769;SDS011;66386;52.122;5.420;2023-05-07T13:19:14;16.30;;;9.70;;
71769;SDS011;66386;52.122;5.420;2023-05-07T13:21:41;13.68;;;9.73;;
71769;SDS011;66386;52.122;5.420;2023-05-07T13:24:07;9.73;;;8.10;;
71769;SDS011;66386;52.122;5.420;2023-05-07T13:26:34;9.70;;;8.68;;
71769;SDS011;66386;52.122;5.420;2023-05-07T13:29:00;9.20;;;8.23;;
71769;SDS011;66386;52.122;5.420;2023-05-07T13:31:27;11.53;;;10.30;;
71769;SDS011;66386;52.122;5.420;2023-05-07T13:33:54;9.65;;;8.75;;
71769;SDS011;66386;52.122;5.420;2023-05-07T13:36:22;9.85;;;8.02;;
71769;SDS011;66386;52.122;5.420;2023-05-07T13:38:49;9.10;;;7.75;;
71769;SDS011;66386;52.122;5.420;2023-05-07T13:41:17;8.43;;;7.68;;
71769;SDS011;66386;52.122;5.420;2023-05-07T13:43:44;9.80;;;8.13;;
71769;SDS011;66386;52.122;5.420;2023-05-07T13:46:10;8.98;;;8.15;;
71769;SDS011;66386;52.122;5.420;2023-05-07T13:48:37;9.57;;;8.60;;
71769;SDS011;66386;52.122;5.420;2023-05-07T13:51:04;10.75;;;9.63;;
71769;SDS011;66386;52.122;5.420;2023-05-07T13:53:30;15.85;;;9.38;;
71769;SDS011;66386;52.122;5.420;2023-05-07T13:55:57;11.17;;;9.40;;
71769;SDS011;66386;52.122;5.420;2023-05-07T13:58:23;14.85;;;10.85;;
71769;SDS011;66386;52.122;5.420;2023-05-07T14:00:49;12.07;;;10.57;;
71769;SDS011;66386;52.122;5.420;2023-05-07T14:03:16;16.50;;;11.57;;
71769;SDS011;66386;52.122;5.420;2023-05-07T14:05:43;11.68;;;10.57;;
71769;SDS011;66386;52.122;5.420;2023-05-07T14:08:11;12.67;;;11.10;;
71769;SDS011;66386;52.122;5.420;2023-05-07T14:10:40;14.00;;;11.70;;
71769;SDS011;66386;52.122;5.420;2023-05-07T14:13:06;13.07;;;10.70;;
71769;SDS011;66386;52.122;5.420;2023-05-07T14:15:33;14.25;;;10.95;;
71769;SDS011;66386;52.122;5.420;2023-05-07T14:17:59;12.35;;;10.63;;
71769;SDS011;66386;52.122;5.420;2023-05-07T14:20:26;11.93;;;10.50;;
71769;SDS011;66386;52.122;5.420;2023-05-07T14:22:53;11.82;;;10.65;;
71769;SDS011;66386;52.122;5.420;2023-05-07T14:25:22;12.55;;;11.25;;
71769;SDS011;66386;52.122;5.420;2023-05-07T14:27:49;13.20;;;11.20;;
71769;SDS011;66386;52.122;5.420;2023-05-07T14:30:15;14.75;;;11.68;;
71769;SDS011;66386;52.122;5.420;2023-05-07T14:32:43;13.67;;;12.23;;
71769;SDS011;66386;52.122;5.420;2023-05-07T14:35:09;13.18;;;10.85;;
71769;SDS011;66386;52.122;5.420;2023-05-07T14:37:36;13.40;;;11.60;;
71769;SDS011;66386;52.122;5.420;2023-05-07T14:40:03;16.48;;;11.48;;
71769;SDS011;66386;52.122;5.420;2023-05-07T14:42:29;12.77;;;11.02;;
71769;SDS011;66386;52.122;5.420;2023-05-07T14:44:56;12.83;;;10.30;;
71769;SDS011;66386;52.122;5.420;2023-05-07T14:47:23;10.75;;;9.65;;
71769;SDS011;66386;52.122;5.420;2023-05-07T14:49:49;10.32;;;9.23;;